createdAt,value
2023-08-20T00:00:36.005Z,74
2023-08-20T00:01:52.144Z,74.1
2023-08-20T00:03:08.283Z,74.1
2023-08-20T00:04:24.411Z,74.2
2023-08-20T00:05:40.544Z,74.2
2023-08-20T00:06:56.671Z,74.2
2023-08-20T00:08:12.812Z,74.4
2023-08-20T00:09:28.943Z,74.4
2023-08-20T00:10:45.071Z,74.6
2023-08-20T00:12:01.214Z,74.7
2023-08-20T00:13:17.331Z,74.7
2023-08-20T00:14:33.489Z,74.6
2023-08-20T00:15:49.604Z,74.6
2023-08-20T00:17:04.749Z,74.6
2023-08-20T00:18:20.878Z,74.6
2023-08-20T00:19:37.017Z,74.6
2023-08-20T00:20:53.141Z,74.7
2023-08-20T00:22:09.278Z,74.7
2023-08-20T00:23:25.411Z,74.7
2023-08-20T00:24:41.537Z,74.7
2023-08-20T00:25:57.670Z,74.9
2023-08-20T00:27:13.809Z,74.9
2023-08-20T00:28:29.942Z,75.1
2023-08-20T00:29:46.069Z,75.3
2023-08-20T00:31:02.204Z,75.3
2023-08-20T00:32:18.338Z,75.5
2023-08-20T00:33:34.464Z,75.5
2023-08-20T00:34:49.606Z,75.5
2023-08-20T00:36:05.742Z,75.7
2023-08-20T00:37:21.881Z,75.6
2023-08-20T00:38:38.012Z,75.5
2023-08-20T00:39:54.138Z,75.8
2023-08-20T00:41:10.274Z,75.6
2023-08-20T00:42:26.402Z,75.5
2023-08-20T00:43:42.535Z,75.6
2023-08-20T00:44:58.666Z,75.7
2023-08-20T00:46:14.802Z,75.7
2023-08-20T00:47:30.937Z,75.8
2023-08-20T00:48:47.000Z,75.9
2023-08-20T00:50:03.194Z,75.9
2023-08-20T00:51:18.348Z,76
2023-08-20T00:52:34.476Z,76
2023-08-20T00:53:50.607Z,76
2023-08-20T00:55:06.738Z,75.9
2023-08-20T00:56:22.874Z,75.9
2023-08-20T00:57:39.005Z,76
2023-08-20T00:58:55.136Z,76
2023-08-20T01:00:11.262Z,76
2023-08-20T01:01:27.388Z,76
2023-08-20T01:02:43.540Z,76.1
2023-08-20T01:03:59.676Z,76.2
2023-08-20T01:05:15.803Z,76.1
2023-08-20T01:06:31.931Z,76.3
2023-08-20T01:07:47.081Z,76.3
2023-08-20T01:09:03.212Z,76.3
2023-08-20T01:10:19.348Z,76.3
2023-08-20T01:11:35.472Z,76.3
2023-08-20T01:12:51.610Z,76.3
2023-08-20T01:14:07.739Z,76.4
2023-08-20T01:15:23.873Z,76.4
2023-08-20T01:16:39.997Z,76.6
2023-08-20T01:17:56.130Z,76.8
2023-08-20T01:19:12.265Z,77.1
2023-08-20T01:20:28.404Z,77.1
2023-08-20T01:21:44.536Z,77
2023-08-20T01:23:00.666Z,77.1
2023-08-20T01:24:16.795Z,77
2023-08-20T01:25:31.949Z,77
2023-08-20T01:26:48.068Z,77
2023-08-20T01:28:04.205Z,77
2023-08-20T01:29:20.340Z,77.2
2023-08-20T01:30:36.471Z,77.1
2023-08-20T01:31:52.602Z,77.1
2023-08-20T01:33:08.731Z,77.1
2023-08-20T01:34:24.865Z,77.2
2023-08-20T01:35:41.005Z,77.3
2023-08-20T01:36:57.134Z,77.4
2023-08-20T01:38:13.262Z,77.4
2023-08-20T01:39:29.394Z,77.4
2023-08-20T01:40:45.527Z,77.4
2023-08-20T01:42:00.672Z,77.5
2023-08-20T01:43:16.812Z,77.5
2023-08-20T01:44:31.966Z,77.4
2023-08-20T01:45:48.101Z,77.5
2023-08-20T01:47:04.229Z,77.5
2023-08-20T01:48:20.369Z,77.5
2023-08-20T01:49:36.491Z,77.6
2023-08-20T01:50:52.622Z,77.5
2023-08-20T01:52:08.762Z,77.5
2023-08-20T01:53:24.891Z,77.4
2023-08-20T01:54:41.020Z,77.4
2023-08-20T01:55:57.160Z,77.3
2023-08-20T01:57:13.285Z,77.4
2023-08-20T01:58:29.420Z,77.4
2023-08-20T01:59:45.553Z,77.4
2023-08-20T02:01:00.701Z,77.6
2023-08-20T02:02:16.829Z,77.7
2023-08-20T02:03:32.961Z,77.7
2023-08-20T02:04:49.088Z,77.7
2023-08-20T02:06:05.219Z,77.7
2023-08-20T02:07:21.359Z,77.8
2023-08-20T02:08:37.487Z,77.9
2023-08-20T02:09:53.620Z,78
2023-08-20T02:11:09.752Z,78
2023-08-20T02:12:25.883Z,78
2023-08-20T02:13:42.027Z,78.1
2023-08-20T02:14:58.152Z,78.2
2023-08-20T02:16:14.278Z,78.3
2023-08-20T02:17:30.416Z,78.2
2023-08-20T02:18:45.563Z,78.3
2023-08-20T02:20:01.686Z,78.4
2023-08-20T02:21:17.827Z,78.4
2023-08-20T02:22:33.967Z,78.6
2023-08-20T02:23:50.096Z,78.7
2023-08-20T02:25:06.222Z,78.8
2023-08-20T02:26:22.357Z,78.7
2023-08-20T02:27:38.485Z,78.7
2023-08-20T02:28:54.621Z,78.9
2023-08-20T02:30:10.760Z,78.9
2023-08-20T02:31:26.886Z,78.9
2023-08-20T02:32:43.021Z,78.8
2023-08-20T02:33:59.145Z,78.8
2023-08-20T02:35:14.296Z,78.8
2023-08-20T02:36:30.417Z,78.7
2023-08-20T02:37:46.556Z,78.9
2023-08-20T02:39:02.689Z,78.9
2023-08-20T02:40:18.830Z,78.9
2023-08-20T02:41:34.960Z,79
2023-08-20T02:42:51.088Z,78.9
2023-08-20T02:44:07.228Z,79.2
2023-08-20T02:45:23.357Z,79.4
2023-08-20T02:46:39.484Z,79.6
2023-08-20T02:47:55.614Z,79.7
2023-08-20T02:49:11.756Z,79.7
2023-08-20T02:50:27.885Z,79.9
2023-08-20T02:51:43.032Z,79.9
2023-08-20T02:52:59.159Z,80
2023-08-20T02:54:15.300Z,79.7
2023-08-20T02:55:31.422Z,79.7
2023-08-20T02:56:47.555Z,79.9
2023-08-20T02:58:03.691Z,80
2023-08-20T02:59:19.827Z,79.9
2023-08-20T03:00:35.957Z,79.9
2023-08-20T03:01:52.095Z,80
2023-08-20T03:03:08.214Z,80
2023-08-20T03:04:24.350Z,80
2023-08-20T03:05:40.491Z,80
2023-08-20T03:06:56.614Z,80
2023-08-20T03:08:12.738Z,79.8
2023-08-20T03:09:27.898Z,80
2023-08-20T03:10:44.036Z,79.9
2023-08-20T03:12:00.163Z,79.9
2023-08-20T03:13:16.292Z,79.9
2023-08-20T03:14:32.418Z,79.7
2023-08-20T03:15:48.556Z,79.6
2023-08-20T03:17:04.686Z,79.6
2023-08-20T03:18:20.813Z,79.4
2023-08-20T03:19:36.955Z,79.4
2023-08-20T03:20:53.103Z,79.3
2023-08-20T03:22:09.224Z,79.3
2023-08-20T03:23:25.349Z,79.3
2023-08-20T03:24:41.477Z,79.4
2023-08-20T03:25:56.626Z,79.5
2023-08-20T03:27:12.760Z,79.4
2023-08-20T03:28:28.895Z,79.3
2023-08-20T03:29:45.031Z,79.3
2023-08-20T03:31:01.157Z,79.3
2023-08-20T03:32:17.291Z,79.7
2023-08-20T03:33:33.421Z,80.2
2023-08-20T03:34:49.558Z,80.3
2023-08-20T03:36:05.690Z,80.3
2023-08-20T03:37:21.817Z,80.2
2023-08-20T03:38:37.957Z,80
2023-08-20T03:39:54.064Z,80
2023-08-20T03:41:10.218Z,80
2023-08-20T03:42:25.370Z,80
2023-08-20T03:43:41.496Z,80
2023-08-20T03:44:57.631Z,80
2023-08-20T03:46:13.761Z,79.8
2023-08-20T03:47:29.890Z,79.8
2023-08-20T03:48:46.019Z,79.8
2023-08-20T03:50:02.146Z,79.8
2023-08-20T03:51:18.294Z,79.8
2023-08-20T03:52:34.421Z,80
2023-08-20T03:53:50.550Z,80
2023-08-20T03:55:06.684Z,80
2023-08-20T03:56:22.820Z,80
2023-08-20T03:57:38.949Z,79.8
2023-08-20T03:58:55.082Z,80
2023-08-20T04:00:10.227Z,80
2023-08-20T04:01:26.361Z,80.3
2023-08-20T04:02:42.493Z,80.3
2023-08-20T04:03:58.632Z,80.7
2023-08-20T04:05:14.762Z,80.8
2023-08-20T04:06:30.906Z,80.8
2023-08-20T04:07:47.022Z,80.8
2023-08-20T04:09:03.150Z,80.8
2023-08-20T04:10:19.291Z,80.8
2023-08-20T04:11:35.419Z,81
2023-08-20T04:12:51.545Z,81
2023-08-20T04:14:07.679Z,81
2023-08-20T04:15:23.820Z,81
2023-08-20T04:16:38.960Z,80.8
2023-08-20T04:17:55.091Z,80.8
2023-08-20T04:19:11.230Z,80.8
2023-08-20T04:20:27.361Z,80.7
2023-08-20T04:21:43.498Z,80.6
2023-08-20T04:22:59.628Z,80.6
2023-08-20T04:24:15.759Z,80.6
2023-08-20T04:25:31.881Z,80.5
2023-08-20T04:26:48.027Z,80.6
2023-08-20T04:28:04.146Z,80.7
2023-08-20T04:29:20.292Z,80.5
2023-08-20T04:30:36.420Z,80.3
2023-08-20T04:31:52.557Z,80.3
2023-08-20T04:33:07.697Z,80.6
2023-08-20T04:34:23.832Z,80.7
2023-08-20T04:35:39.964Z,80.7
2023-08-20T04:36:56.095Z,80.8
2023-08-20T04:38:12.221Z,80.9
2023-08-20T04:39:28.355Z,81
2023-08-20T04:40:44.496Z,81.1
2023-08-20T04:42:00.620Z,81.1
2023-08-20T04:43:16.750Z,81.1
2023-08-20T04:44:32.887Z,80.7
2023-08-20T04:45:49.016Z,80.5
2023-08-20T04:47:05.146Z,80.5
2023-08-20T04:48:21.280Z,80.4
2023-08-20T04:49:37.421Z,80.3
2023-08-20T04:50:52.567Z,80.3
2023-08-20T04:52:08.000Z,80.5
2023-08-20T04:53:24.824Z,80.4
2023-08-20T04:54:40.960Z,80.6
2023-08-20T04:55:57.087Z,80.6
2023-08-20T04:57:13.224Z,80.6
2023-08-20T04:58:29.357Z,80.7
2023-08-20T04:59:45.486Z,81
2023-08-20T05:01:01.619Z,80.9
2023-08-20T05:02:17.741Z,80.7
2023-08-20T05:03:33.889Z,81
2023-08-20T05:04:50.009Z,81.1
2023-08-20T05:06:06.140Z,81.1
2023-08-20T05:07:21.290Z,81
2023-08-20T05:08:37.426Z,80.8
2023-08-20T05:09:53.559Z,80.6
2023-08-20T05:11:09.700Z,80.5
2023-08-20T05:12:25.819Z,80
2023-08-20T05:13:41.951Z,80
2023-08-20T05:14:58.092Z,80
2023-08-20T05:16:14.222Z,79.7
2023-08-20T05:17:30.352Z,79.3
2023-08-20T05:18:46.482Z,79
2023-08-20T05:20:02.614Z,78.6
2023-08-20T05:21:18.747Z,77.9
2023-08-20T05:22:34.881Z,77.6
2023-08-20T05:23:50.031Z,77.2
2023-08-20T05:25:06.159Z,77
2023-08-20T05:26:22.292Z,76.9
2023-08-20T05:27:38.437Z,76.7
2023-08-20T05:28:54.565Z,76.3
2023-08-20T05:30:10.687Z,76.2
2023-08-20T05:31:26.846Z,76.1
2023-08-20T05:32:42.962Z,76.2
2023-08-20T05:33:59.090Z,76.1
2023-08-20T05:35:15.212Z,76
2023-08-20T05:36:31.349Z,75.9
2023-08-20T05:37:47.480Z,75.9
2023-08-20T05:39:03.617Z,75.3
2023-08-20T05:40:19.751Z,75.5
2023-08-20T05:41:34.884Z,75.7
2023-08-20T05:42:51.034Z,75.8
2023-08-20T05:44:07.160Z,75.7
2023-08-20T05:45:23.295Z,75.5
2023-08-20T05:46:39.427Z,75.4
2023-08-20T05:47:55.552Z,75.5
2023-08-20T05:49:11.684Z,75.4
2023-08-20T05:50:27.819Z,75.3
2023-08-20T05:51:43.945Z,75.3
2023-08-20T05:53:00.082Z,75.2
2023-08-20T05:54:16.216Z,75.3
2023-08-20T05:55:32.338Z,75.1
2023-08-20T05:56:48.479Z,75.2
2023-08-20T05:58:03.631Z,75.1
2023-08-20T05:59:18.789Z,75.1
2023-08-20T06:00:34.915Z,75
2023-08-20T06:01:51.050Z,75
2023-08-20T06:03:07.180Z,75.1
2023-08-20T06:04:23.308Z,75
2023-08-20T06:05:39.445Z,75.1
2023-08-20T06:06:55.576Z,75
2023-08-20T06:08:11.701Z,74.9
2023-08-20T06:09:27.847Z,74.8
2023-08-20T06:10:43.970Z,74.8
2023-08-20T06:12:00.108Z,74.9
2023-08-20T06:13:16.237Z,75
2023-08-20T06:14:32.372Z,75
2023-08-20T06:15:48.508Z,75.1
2023-08-20T06:17:03.657Z,75.2
2023-08-20T06:18:19.786Z,75
2023-08-20T06:19:35.923Z,74.7
2023-08-20T06:20:52.036Z,74.7
2023-08-20T06:22:08.175Z,74.5
2023-08-20T06:23:24.314Z,74.3
2023-08-20T06:24:40.443Z,74.3
2023-08-20T06:25:56.558Z,74.1
2023-08-20T06:27:12.712Z,73.9
2023-08-20T06:28:28.834Z,73.9
2023-08-20T06:29:44.964Z,73.8
2023-08-20T06:31:01.105Z,73.7
2023-08-20T06:32:17.238Z,73.7
2023-08-20T06:33:32.390Z,73.7
2023-08-20T06:34:48.517Z,73.2
2023-08-20T06:36:04.645Z,73.3
2023-08-20T06:37:20.783Z,73.3
2023-08-20T06:38:36.920Z,73.6
2023-08-20T06:39:53.051Z,73.7
2023-08-20T06:41:09.181Z,73.7
2023-08-20T06:42:25.317Z,74.1
2023-08-20T06:43:41.445Z,74
2023-08-20T06:44:57.581Z,74.2
2023-08-20T06:46:13.000Z,74.3
2023-08-20T06:47:29.844Z,74.5
2023-08-20T06:48:45.967Z,74.6
2023-08-20T06:50:01.121Z,74.5
2023-08-20T06:51:17.260Z,74.2
2023-08-20T06:52:33.389Z,74.3
2023-08-20T06:53:49.522Z,74.5
2023-08-20T06:55:05.647Z,74.2
2023-08-20T06:56:21.785Z,74.5
2023-08-20T06:57:37.919Z,74.3
2023-08-20T06:58:54.049Z,74.2
2023-08-20T07:00:10.182Z,74.2
2023-08-20T07:01:26.312Z,74.4
2023-08-20T07:02:42.443Z,74.8
2023-08-20T07:03:58.577Z,74.5
2023-08-20T07:05:14.709Z,74.6
2023-08-20T07:06:30.830Z,74.1
2023-08-20T07:07:45.987Z,74.4
2023-08-20T07:09:02.118Z,74.4
2023-08-20T07:10:18.252Z,73.9
2023-08-20T07:11:34.382Z,73.9
2023-08-20T07:12:50.516Z,73.7
2023-08-20T07:14:06.641Z,73.4
2023-08-20T07:15:22.776Z,73
2023-08-20T07:16:38.913Z,73
2023-08-20T07:17:55.040Z,72.8
2023-08-20T07:19:11.174Z,72.5
2023-08-20T07:20:27.308Z,72.3
2023-08-20T07:21:43.445Z,71.8
2023-08-20T07:22:59.570Z,71.5
2023-08-20T07:24:14.720Z,71.7
2023-08-20T07:25:30.851Z,71.3
2023-08-20T07:26:46.990Z,71.3
2023-08-20T07:28:03.117Z,71
2023-08-20T07:29:19.252Z,71
2023-08-20T07:30:35.372Z,70.5
2023-08-20T07:31:51.514Z,70
2023-08-20T07:33:07.644Z,69.7
2023-08-20T07:34:23.784Z,69.3
2023-08-20T07:35:39.908Z,68.4
2023-08-20T07:36:56.051Z,67.9
2023-08-20T07:38:12.179Z,67.7
2023-08-20T07:39:28.310Z,67.7
2023-08-20T07:40:43.456Z,67.1
2023-08-20T07:41:59.592Z,67.1
2023-08-20T07:43:15.719Z,67.1
2023-08-20T07:44:31.855Z,66.6
2023-08-20T07:45:47.979Z,65.6
2023-08-20T07:47:04.120Z,65.5
2023-08-20T07:48:20.247Z,65
2023-08-20T07:49:36.382Z,65.5
2023-08-20T07:50:52.520Z,65.5
2023-08-20T07:52:08.646Z,65
2023-08-20T07:53:24.784Z,65.4
2023-08-20T07:54:40.914Z,64.6
2023-08-20T07:55:57.048Z,64.2
2023-08-20T07:57:13.169Z,63.9
2023-08-20T07:58:28.320Z,63.7
2023-08-20T07:59:44.460Z,63.3
2023-08-20T08:01:00.576Z,62.8
2023-08-20T08:02:16.720Z,62.6
2023-08-20T08:03:32.851Z,62.5
2023-08-20T08:04:48.983Z,61.9
2023-08-20T08:06:05.115Z,61.4
2023-08-20T08:07:21.250Z,60.9
2023-08-20T08:08:37.388Z,60.4
2023-08-20T08:09:53.513Z,59.7
2023-08-20T08:11:09.650Z,58.9
2023-08-20T08:12:25.779Z,58.5
2023-08-20T08:13:41.908Z,58.4
2023-08-20T08:14:58.047Z,58.4
2023-08-20T08:16:13.190Z,58.5
2023-08-20T08:17:29.324Z,58.5
2023-08-20T08:18:45.470Z,58.3
2023-08-20T08:20:01.587Z,58.4
2023-08-20T08:21:17.727Z,58.5
2023-08-20T08:22:33.852Z,58.9
2023-08-20T08:23:49.990Z,58.3
2023-08-20T08:25:06.110Z,58.4
2023-08-20T08:26:22.253Z,58.2
2023-08-20T08:27:38.386Z,58.4
2023-08-20T08:28:54.510Z,58.2
2023-08-20T08:30:10.640Z,58.8
2023-08-20T08:31:26.776Z,59.4
2023-08-20T08:32:41.935Z,59
2023-08-20T08:33:58.064Z,58.9
2023-08-20T08:35:14.188Z,58.3
2023-08-20T08:36:30.328Z,58.4
2023-08-20T08:37:46.462Z,58.3
2023-08-20T08:39:02.588Z,58.2
2023-08-20T08:40:18.715Z,58.3
2023-08-20T08:41:34.860Z,59
2023-08-20T08:42:50.988Z,58.8
2023-08-20T08:44:07.113Z,59.4
2023-08-20T08:45:23.251Z,59.5
2023-08-20T08:46:39.377Z,59.2
2023-08-20T08:47:55.512Z,59.1
2023-08-20T08:49:10.657Z,59.1
2023-08-20T08:50:26.798Z,58.7
2023-08-20T08:51:42.931Z,58.7
2023-08-20T08:52:59.055Z,58.5
2023-08-20T08:54:15.194Z,58.5
2023-08-20T08:55:31.320Z,58.4
2023-08-20T08:56:47.457Z,58.3
2023-08-20T08:58:03.589Z,58.6
2023-08-20T08:59:19.716Z,57.8
2023-08-20T09:00:35.857Z,58.3
2023-08-20T09:01:51.992Z,57.4
2023-08-20T09:03:08.114Z,57.8
2023-08-20T09:04:24.254Z,57.8
2023-08-20T09:05:39.405Z,57.1
2023-08-20T09:06:55.530Z,56.7
2023-08-20T09:08:11.665Z,56.6
2023-08-20T09:09:27.795Z,56.6
2023-08-20T09:10:43.929Z,56.6
2023-08-20T09:12:00.066Z,56.6
2023-08-20T09:13:16.000Z,55.9
2023-08-20T09:14:32.333Z,55.4
2023-08-20T09:15:48.451Z,55.3
2023-08-20T09:17:04.593Z,55.4
2023-08-20T09:18:20.728Z,55.6
2023-08-20T09:19:36.854Z,55.4
2023-08-20T09:20:52.000Z,55.4
2023-08-20T09:22:09.124Z,55.1
2023-08-20T09:23:24.266Z,54.2
2023-08-20T09:24:40.407Z,54.8
2023-08-20T09:25:56.531Z,54.8
2023-08-20T09:27:12.668Z,54
2023-08-20T09:28:28.803Z,53.3
2023-08-20T09:29:44.934Z,53.2
2023-08-20T09:31:01.060Z,52.9
2023-08-20T09:32:17.197Z,55.2
2023-08-20T09:33:33.332Z,55.1
2023-08-20T09:34:49.465Z,54.5
2023-08-20T09:36:05.594Z,53.9
2023-08-20T09:37:21.729Z,54.2
2023-08-20T09:38:37.846Z,54.4
2023-08-20T09:39:53.990Z,54.9
2023-08-20T09:41:10.129Z,54.8
2023-08-20T09:42:25.271Z,55.1
2023-08-20T09:43:41.402Z,55.3
2023-08-20T09:44:57.534Z,55.4
2023-08-20T09:46:13.674Z,55.4
2023-08-20T09:47:29.797Z,55.5
2023-08-20T09:48:45.926Z,55
2023-08-20T09:50:02.048Z,55.2
2023-08-20T09:51:18.204Z,55.2
2023-08-20T09:52:34.336Z,55.3
2023-08-20T09:53:50.461Z,55.1
2023-08-20T09:55:06.603Z,54.8
2023-08-20T09:56:22.715Z,55
2023-08-20T09:57:38.864Z,54.1
2023-08-20T09:58:54.016Z,53.2
2023-08-20T10:00:10.142Z,52.7
2023-08-20T10:01:26.271Z,52.8
2023-08-20T10:02:42.409Z,52.3
2023-08-20T10:03:58.538Z,52.6
2023-08-20T10:05:14.667Z,52
2023-08-20T10:06:30.808Z,51.9
2023-08-20T10:07:46.942Z,51.9
2023-08-20T10:09:03.069Z,51.7
2023-08-20T10:10:19.202Z,52
2023-08-20T10:11:35.336Z,51.4
2023-08-20T10:12:51.470Z,50.9
2023-08-20T10:14:06.627Z,50.9
2023-08-20T10:15:22.759Z,50.8
2023-08-20T10:16:38.894Z,51.2
2023-08-20T10:17:55.023Z,50.5
2023-08-20T10:19:11.163Z,51
2023-08-20T10:20:27.285Z,50.3
2023-08-20T10:21:43.427Z,51
2023-08-20T10:22:59.559Z,50.5
2023-08-20T10:24:15.677Z,49.5
2023-08-20T10:25:31.821Z,48
2023-08-20T10:26:47.960Z,48.4
2023-08-20T10:28:04.094Z,48.9
2023-08-20T10:29:20.224Z,49.2
2023-08-20T10:30:35.368Z,49.1
2023-08-20T10:31:51.506Z,48.3
2023-08-20T10:33:07.635Z,49.5
2023-08-20T10:34:23.000Z,49
2023-08-20T10:35:39.906Z,49.1
2023-08-20T10:36:56.044Z,48.9
2023-08-20T10:38:12.167Z,48.8
2023-08-20T10:39:28.000Z,49.4
2023-08-20T10:40:44.440Z,48.8
2023-08-20T10:42:00.568Z,48.6
2023-08-20T10:43:16.703Z,48.4
2023-08-20T10:44:32.833Z,48.8
2023-08-20T10:45:48.966Z,48.6
2023-08-20T10:47:04.118Z,49.1
2023-08-20T10:48:20.247Z,49.6
2023-08-20T10:49:36.384Z,50.6
2023-08-20T10:50:52.515Z,49.5
2023-08-20T10:52:08.652Z,48.5
2023-08-20T10:53:24.787Z,48.7
2023-08-20T10:54:40.910Z,49.1
2023-08-20T10:55:57.047Z,49.7
2023-08-20T10:57:13.179Z,50.3
2023-08-20T10:58:29.307Z,50.6
2023-08-20T10:59:45.444Z,47.9
2023-08-20T11:01:01.581Z,48.8
2023-08-20T11:02:17.713Z,49.3
2023-08-20T11:03:32.864Z,50
2023-08-20T11:04:48.989Z,50.5
2023-08-20T11:06:05.115Z,50.1
2023-08-20T11:07:21.259Z,51.8
2023-08-20T11:08:37.387Z,51
2023-08-20T11:09:53.520Z,50.1
2023-08-20T11:11:09.663Z,50.3
2023-08-20T11:12:25.782Z,48.3
2023-08-20T11:13:41.919Z,48.3
2023-08-20T11:14:58.048Z,48.8
2023-08-20T11:16:14.194Z,48.9
2023-08-20T11:17:30.320Z,48.3
2023-08-20T11:18:46.447Z,47.1
2023-08-20T11:20:02.581Z,47.3
2023-08-20T11:21:17.730Z,47.1
2023-08-20T11:22:33.881Z,47
2023-08-20T11:23:49.994Z,46.3
2023-08-20T11:25:06.117Z,46.7
2023-08-20T11:26:22.266Z,46.5
2023-08-20T11:27:38.397Z,45.6
2023-08-20T11:28:54.525Z,45.6
2023-08-20T11:30:10.660Z,46
2023-08-20T11:31:26.798Z,46.2
2023-08-20T11:32:42.922Z,46.5
2023-08-20T11:33:59.058Z,45.9
2023-08-20T11:35:15.187Z,46.4
2023-08-20T11:36:31.322Z,46.9
2023-08-20T11:37:47.451Z,46.8
2023-08-20T11:39:02.609Z,46.8
2023-08-20T11:40:18.731Z,46.2
2023-08-20T11:41:34.867Z,46.6
2023-08-20T11:42:51.002Z,45.9
2023-08-20T11:44:07.139Z,45.7
2023-08-20T11:45:23.258Z,46.5
2023-08-20T11:46:39.396Z,46.7
2023-08-20T11:47:55.549Z,46.7
2023-08-20T11:49:11.669Z,46.9
2023-08-20T11:50:27.795Z,46.6
2023-08-20T11:51:43.930Z,46.7
2023-08-20T11:53:00.059Z,46.2
2023-08-20T11:54:16.187Z,46
2023-08-20T11:55:31.348Z,46
2023-08-20T11:56:47.474Z,45.5
2023-08-20T11:58:03.608Z,45.9
2023-08-20T11:59:19.744Z,45.9
2023-08-20T12:00:35.875Z,46.1
2023-08-20T12:01:51.999Z,46
2023-08-20T12:03:08.133Z,45.7
2023-08-20T12:04:24.277Z,46.2
2023-08-20T12:05:40.395Z,46.3
2023-08-20T12:06:56.532Z,46.3
2023-08-20T12:08:12.660Z,46.4
2023-08-20T12:09:28.797Z,45.8
2023-08-20T12:10:44.933Z,46.1
2023-08-20T12:12:00.079Z,45.5
2023-08-20T12:13:16.211Z,45.7
2023-08-20T12:14:32.344Z,45.4
2023-08-20T12:15:48.475Z,45.6
2023-08-20T12:17:04.611Z,44.9
2023-08-20T12:18:20.739Z,45.5
2023-08-20T12:19:36.871Z,45.5
2023-08-20T12:20:52.997Z,46
2023-08-20T12:22:09.143Z,46.2
2023-08-20T12:23:25.275Z,46
2023-08-20T12:24:41.402Z,46.1
2023-08-20T12:25:57.535Z,46.5
2023-08-20T12:27:13.673Z,45.6
2023-08-20T12:28:28.000Z,45.6
2023-08-20T12:29:44.953Z,45.7
2023-08-20T12:31:01.073Z,45.9
2023-08-20T12:32:17.215Z,45.6
2023-08-20T12:33:33.347Z,45.1
2023-08-20T12:34:49.485Z,45.7
2023-08-20T12:36:05.610Z,45.7
2023-08-20T12:37:21.743Z,46
2023-08-20T12:38:37.873Z,46.4
2023-08-20T12:39:54.004Z,46.7
2023-08-20T12:41:10.142Z,47.2
2023-08-20T12:42:26.269Z,46.4
2023-08-20T12:43:42.408Z,46.6
2023-08-20T12:44:58.539Z,46.9
2023-08-20T12:46:13.681Z,46.3
2023-08-20T12:47:29.820Z,46.9
2023-08-20T12:48:45.944Z,47.3
2023-08-20T12:50:02.072Z,46.8
2023-08-20T12:51:18.213Z,47
2023-08-20T12:52:34.356Z,47.6
2023-08-20T12:53:50.479Z,47.6
2023-08-20T12:55:06.615Z,47.2
2023-08-20T12:56:22.740Z,47.5
2023-08-20T12:57:38.876Z,47.8
2023-08-20T12:58:55.001Z,48.1
2023-08-20T13:00:11.144Z,47.9
2023-08-20T13:01:27.269Z,48.6
2023-08-20T13:02:43.399Z,48.4
2023-08-20T13:03:59.531Z,48.6
2023-08-20T13:05:14.678Z,48.2
2023-08-20T13:06:30.812Z,47.5
2023-08-20T13:07:46.942Z,47.5
2023-08-20T13:09:03.080Z,47.5
2023-08-20T13:10:19.210Z,47.4
2023-08-20T13:11:35.343Z,47.7
2023-08-20T13:12:51.471Z,47
2023-08-20T13:14:07.611Z,47.4
2023-08-20T13:15:23.734Z,47
2023-08-20T13:16:39.873Z,46.9
2023-08-20T13:17:56.001Z,47.5
2023-08-20T13:19:12.134Z,48
2023-08-20T13:20:28.265Z,48
2023-08-20T13:21:44.399Z,48.3
2023-08-20T13:22:59.544Z,48.1
2023-08-20T13:24:15.000Z,48.9
2023-08-20T13:25:31.814Z,48.4
2023-08-20T13:26:47.944Z,46.7
2023-08-20T13:28:04.072Z,47
2023-08-20T13:29:20.212Z,46.2
2023-08-20T13:30:36.341Z,45.4
2023-08-20T13:31:52.472Z,46.4
2023-08-20T13:33:08.610Z,46.4
2023-08-20T13:34:24.740Z,45.4
2023-08-20T13:35:40.870Z,45.3
2023-08-20T13:36:56.000Z,46.3
2023-08-20T13:38:13.141Z,46.3
2023-08-20T13:39:29.278Z,45.9
2023-08-20T13:40:45.399Z,46.5
2023-08-20T13:42:01.530Z,46.9
2023-08-20T13:43:17.662Z,47.4
2023-08-20T13:44:33.794Z,46.5
2023-08-20T13:45:48.944Z,47
2023-08-20T13:47:05.080Z,46.3
2023-08-20T13:48:21.210Z,44.8
2023-08-20T13:49:37.330Z,45.4
2023-08-20T13:50:53.463Z,46.6
2023-08-20T13:52:09.604Z,45.8
2023-08-20T13:53:25.738Z,46
2023-08-20T13:54:41.860Z,46.6
2023-08-20T13:55:58.007Z,45.6
2023-08-20T13:57:14.138Z,46.9
2023-08-20T13:58:30.271Z,45.5
2023-08-20T13:59:46.391Z,46.7
2023-08-20T14:01:02.531Z,46.4
2023-08-20T14:02:18.661Z,45.7
2023-08-20T14:03:34.000Z,45.1
2023-08-20T14:04:50.921Z,44.8
2023-08-20T14:06:06.082Z,45.8
2023-08-20T14:07:22.210Z,44.7
2023-08-20T14:08:38.339Z,45.4
2023-08-20T14:09:54.469Z,45.7
2023-08-20T14:11:10.605Z,45.4
2023-08-20T14:12:26.730Z,46.5
2023-08-20T14:13:42.867Z,46.6
2023-08-20T14:14:59.007Z,46.4
2023-08-20T14:16:15.133Z,46.9
2023-08-20T14:17:31.270Z,47.4
2023-08-20T14:18:47.409Z,47.8
2023-08-20T14:20:03.537Z,47.8
2023-08-20T14:21:19.666Z,47.9
2023-08-20T14:22:35.801Z,48.2
2023-08-20T14:23:50.943Z,48.5
2023-08-20T14:25:07.080Z,48.8
2023-08-20T14:26:23.208Z,48.8
2023-08-20T14:27:39.345Z,48.9
2023-08-20T14:28:54.495Z,49.1
2023-08-20T14:30:10.634Z,49
2023-08-20T14:31:26.763Z,49
2023-08-20T14:32:42.893Z,49
2023-08-20T14:33:59.032Z,49.1
2023-08-20T14:35:15.163Z,48.7
2023-08-20T14:36:31.303Z,48.1
2023-08-20T14:37:47.432Z,48.3
2023-08-20T14:39:03.566Z,48
2023-08-20T14:40:19.692Z,47.4
2023-08-20T14:41:35.830Z,46.9
2023-08-20T14:42:51.962Z,47.2
2023-08-20T14:44:08.090Z,47.3
2023-08-20T14:45:24.227Z,47.4
2023-08-20T14:46:40.362Z,48
2023-08-20T14:47:55.500Z,47.6
2023-08-20T14:49:11.642Z,47.9
2023-08-20T14:50:27.762Z,48
2023-08-20T14:51:43.901Z,48.4
2023-08-20T14:53:00.035Z,48.3
2023-08-20T14:54:16.170Z,48.6
2023-08-20T14:55:32.300Z,49.1
2023-08-20T14:56:48.431Z,49.3
2023-08-20T14:58:04.568Z,49.5
2023-08-20T14:59:20.692Z,49.8
2023-08-20T15:00:36.837Z,49.9
2023-08-20T15:01:52.968Z,50.1
2023-08-20T15:03:09.096Z,50.1
2023-08-20T15:04:24.246Z,50.3
2023-08-20T15:05:40.380Z,50.3
2023-08-20T15:06:56.501Z,50.5
2023-08-20T15:08:12.646Z,50.7
2023-08-20T15:09:28.777Z,51.6
2023-08-20T15:10:44.914Z,52
2023-08-20T15:12:01.035Z,52.3
2023-08-20T15:13:17.190Z,52.4
2023-08-20T15:14:33.310Z,52.6
2023-08-20T15:15:49.439Z,52.9
2023-08-20T15:17:05.567Z,53.3
2023-08-20T15:18:21.704Z,53.4
2023-08-20T15:19:37.837Z,53.7
2023-08-20T15:20:53.965Z,53.7
2023-08-20T15:22:09.119Z,53.7
2023-08-20T15:23:25.242Z,54.1
2023-08-20T15:24:41.383Z,54.3
2023-08-20T15:25:57.516Z,54.5
2023-08-20T15:27:13.644Z,54.5
2023-08-20T15:28:29.776Z,54.9
2023-08-20T15:29:45.905Z,54.9
2023-08-20T15:31:02.044Z,55.3
2023-08-20T15:32:18.177Z,54.9
2023-08-20T15:33:34.309Z,54.8
2023-08-20T15:34:50.441Z,54.9
2023-08-20T15:36:06.574Z,54.8
2023-08-20T15:37:22.702Z,54.5
2023-08-20T15:38:38.834Z,54.9
2023-08-20T15:39:53.980Z,54.6
2023-08-20T15:41:10.115Z,55
2023-08-20T15:42:26.247Z,54.9
2023-08-20T15:43:42.381Z,54.8
2023-08-20T15:44:58.516Z,54.9
2023-08-20T15:46:14.649Z,54.8
2023-08-20T15:47:30.774Z,54.5
2023-08-20T15:48:46.901Z,54.8
2023-08-20T15:50:03.022Z,54.6
2023-08-20T15:51:19.177Z,54.2
2023-08-20T15:52:35.298Z,54.4
2023-08-20T15:53:51.443Z,54.7
2023-08-20T15:55:07.574Z,55.1
2023-08-20T15:56:22.717Z,55.5
2023-08-20T15:57:38.853Z,55.7
2023-08-20T15:58:54.982Z,55.7
2023-08-20T16:00:11.119Z,55.5
2023-08-20T16:01:27.246Z,56.1
2023-08-20T16:02:43.386Z,56.1
2023-08-20T16:03:59.512Z,56.1
2023-08-20T16:05:15.647Z,56
2023-08-20T16:06:31.783Z,56.1
2023-08-20T16:07:47.917Z,56.5
2023-08-20T16:09:04.038Z,56.6
2023-08-20T16:10:20.179Z,56.5
2023-08-20T16:11:36.301Z,56.3
2023-08-20T16:12:51.462Z,55.9
2023-08-20T16:14:07.584Z,55.7
2023-08-20T16:15:23.723Z,55.6
2023-08-20T16:16:39.856Z,55.1
2023-08-20T16:17:55.990Z,55.1
2023-08-20T16:19:12.117Z,54.9
2023-08-20T16:20:28.244Z,54.9
2023-08-20T16:21:44.383Z,54.6
2023-08-20T16:23:00.515Z,54.4
2023-08-20T16:24:16.641Z,54.6
2023-08-20T16:25:32.781Z,54.5
2023-08-20T16:26:48.917Z,54.7
2023-08-20T16:28:05.029Z,54.7
2023-08-20T16:29:21.176Z,54.7
2023-08-20T16:30:36.327Z,54.7
2023-08-20T16:31:52.451Z,54.9
2023-08-20T16:33:08.591Z,55
2023-08-20T16:34:24.723Z,55.3
2023-08-20T16:35:40.858Z,55.3
2023-08-20T16:36:56.980Z,55.4
2023-08-20T16:38:13.113Z,55.4
2023-08-20T16:39:29.250Z,55.5
2023-08-20T16:40:45.380Z,55.5
2023-08-20T16:42:01.511Z,55.6
2023-08-20T16:43:17.645Z,55.7
2023-08-20T16:44:33.771Z,55.6
2023-08-20T16:45:49.911Z,55.7
2023-08-20T16:47:05.057Z,56.1
2023-08-20T16:48:21.188Z,56.2
2023-08-20T16:49:37.324Z,56.2
2023-08-20T16:50:53.448Z,56.4
2023-08-20T16:52:09.590Z,56.5
2023-08-20T16:53:25.716Z,56.6
2023-08-20T16:54:41.840Z,56.8
2023-08-20T16:55:57.983Z,56.6
2023-08-20T16:57:14.111Z,56.3
2023-08-20T16:58:30.241Z,55.9
2023-08-20T16:59:46.377Z,55.7
2023-08-20T17:01:02.512Z,55.6